sensor_id;sensor_type;location;lat;lon;timestamp;temperature;humidity
23267;DHT22;11802;53.160;8.214;2023-11-19T00:01:40;8.30;99.90
23267;DHT22;11802;53.160;8.214;2023-11-19T00:04:05;8.40;99.90
23267;DHT22;11802;53.160;8.214;2023-11-19T00:06:31;8.40;99.90
23267;DHT22;11802;53.160;8.214;2023-11-19T00:08:56;8.50;99.90
23267;DHT22;11802;53.160;8.214;2023-11-19T00:11:22;8.50;99.90
23267;DHT22;11802;53.160;8.214;2023-11-19T00:13:47;8.50;99.90
23267;DHT22;11802;53.160;8.214;2023-11-19T00:16:13;8.50;99.90
23267;DHT22;11802;53.160;8.214;2023-11-19T00:18:39;8.60;99.90
23267;DHT22;11802;53.160;8.214;2023-11-19T00:21:06;8.60;99.90
23267;DHT22;11802;53.160;8.214;2023-11-19T00:23:33;8.60;99.90
23267;DHT22;11802;53.160;8.214;2023-11-19T00:25:59;8.70;99.90
23267;DHT22;11802;53.160;8.214;2023-11-19T00:28:24;8.70;99.90
23267;DHT22;11802;53.160;8.214;2023-11-19T00:30:50;8.70;99.90
23267;DHT22;11802;53.160;8.214;2023-11-19T00:33:15;8.80;99.90
23267;DHT22;11802;53.160;8.214;2023-11-19T00:35:41;8.80;99.90
23267;DHT22;11802;53.160;8.214;2023-11-19T00:38:06;8.80;99.90
23267;DHT22;11802;53.160;8.214;2023-11-19T00:40:32;8.90;99.90
23267;DHT22;11802;53.160;8.214;2023-11-19T00:42:58;8.90;99.90
23267;DHT22;11802;53.160;8.214;2023-11-19T00:45:24;9.00;99.90
23267;DHT22;11802;53.160;8.214;2023-11-19T00:47:50;9.00;99.90
23267;DHT22;11802;53.160;8.214;2023-11-19T00:50:16;9.00;99.90
23267;DHT22;11802;53.160;8.214;2023-11-19T00:52:42;9.10;99.90
23267;DHT22;11802;53.160;8.214;2023-11-19T00:55:09;9.10;99.90
23267;DHT22;11802;53.160;8.214;2023-11-19T00:57:35;9.20;99.90
23267;DHT22;11802;53.160;8.214;2023-11-19T01:00:01;9.20;99.90
23267;DHT22;11802;53.160;8.214;2023-11-19T01:02:26;9.20;99.90
23267;DHT22;11802;53.160;8.214;2023-11-19T01:04:52;9.30;99.90
23267;DHT22;11802;53.160;8.214;2023-11-19T01:07:17;9.30;99.90
23267;DHT22;11802;53.160;8.214;2023-11-19T01:09:43;9.30;99.90
23267;DHT22;11802;53.160;8.214;2023-11-19T01:12:09;9.40;99.90
23267;DHT22;11802;53.160;8.214;2023-11-19T01:14:36;9.40;99.90
23267;DHT22;11802;53.160;8.214;2023-11-19T01:17:01;9.40;99.90
23267;DHT22;11802;53.160;8.214;2023-11-19T01:19:27;9.40;99.90
23267;DHT22;11802;53.160;8.214;2023-11-19T01:21:55;9.50;99.90
23267;DHT22;11802;53.160;8.214;2023-11-19T01:24:21;9.60;99.90
23267;DHT22;11802;53.160;8.214;2023-11-19T01:26:46;9.60;99.90
23267;DHT22;11802;53.160;8.214;2023-11-19T01:29:13;9.60;99.90
23267;DHT22;11802;53.160;8.214;2023-11-19T01:31:41;9.70;99.90
23267;DHT22;11802;53.160;8.214;2023-11-19T01:34:07;9.70;99.90
23267;DHT22;11802;53.160;8.214;2023-11-19T01:36:33;9.80;99.90
23267;DHT22;11802;53.160;8.214;2023-11-19T01:38:59;9.80;99.90
23267;DHT22;11802;53.160;8.214;2023-11-19T01:41:24;9.90;99.90
23267;DHT22;11802;53.160;8.214;2023-11-19T01:43:50;9.90;99.90
23267;DHT22;11802;53.160;8.214;2023-11-19T01:46:16;9.90;99.90
23267;DHT22;11802;53.160;8.214;2023-11-19T01:48:44;10.00;99.90
23267;DHT22;11802;53.160;8.214;2023-11-19T01:51:10;10.00;99.90
23267;DHT22;11802;53.160;8.214;2023-11-19T01:53:37;10.00;99.90
23267;DHT22;11802;53.160;8.214;2023-11-19T01:56:05;10.00;99.90
23267;DHT22;11802;53.160;8.214;2023-11-19T01:58:35;10.10;99.90
23267;DHT22;11802;53.160;8.214;2023-11-19T02:01:00;10.10;99.90
23267;DHT22;11802;53.160;8.214;2023-11-19T02:03:30;10.10;99.90
23267;DHT22;11802;53.160;8.214;2023-11-19T02:05:56;10.10;99.90
23267;DHT22;11802;53.160;8.214;2023-11-19T02:08:23;10.20;99.90
23267;DHT22;11802;53.160;8.214;2023-11-19T02:10:48;10.20;99.90
23267;DHT22;11802;53.160;8.214;2023-11-19T02:13:14;10.20;99.90
23267;DHT22;11802;53.160;8.214;2023-11-19T02:15:41;10.30;99.90
23267;DHT22;11802;53.160;8.214;2023-11-19T02:18:20;10.30;99.90
23267;DHT22;11802;53.160;8.214;2023-11-19T02:20:47;10.40;99.90
23267;DHT22;11802;53.160;8.214;2023-11-19T02:23:13;10.40;99.90
23267;DHT22;11802;53.160;8.214;2023-11-19T02:25:40;10.40;99.90
23267;DHT22;11802;53.160;8.214;2023-11-19T02:28:06;10.40;99.90
23267;DHT22;11802;53.160;8.214;2023-11-19T02:30:32;10.50;99.90
23267;DHT22;11802;53.160;8.214;2023-11-19T02:32:59;10.50;99.90
23267;DHT22;11802;53.160;8.214;2023-11-19T02:35:27;10.60;99.90
23267;DHT22;11802;53.160;8.214;2023-11-19T02:37:54;10.60;99.90
23267;DHT22;11802;53.160;8.214;2023-11-19T02:40:20;10.70;99.90
23267;DHT22;11802;53.160;8.214;2023-11-19T02:42:48;10.70;99.90
23267;DHT22;11802;53.160;8.214;2023-11-19T02:45:14;10.70;99.90
23267;DHT22;11802;53.160;8.214;2023-11-19T02:47:43;10.70;99.90
23267;DHT22;11802;53.160;8.214;2023-11-19T02:50:10;10.70;99.90
23267;DHT22;11802;53.160;8.214;2023-11-19T02:52:43;10.80;99.90
23267;DHT22;11802;53.160;8.214;2023-11-19T02:55:12;10.80;99.90
23267;DHT22;11802;53.160;8.214;2023-11-19T02:57:39;10.90;99.90
23267;DHT22;11802;53.160;8.214;2023-11-19T03:00:13;10.90;99.90
23267;DHT22;11802;53.160;8.214;2023-11-19T03:02:41;10.90;99.90
23267;DHT22;11802;53.160;8.214;2023-11-19T03:05:20;11.00;99.90
23267;DHT22;11802;53.160;8.214;2023-11-19T03:07:46;11.00;99.90
23267;DHT22;11802;53.160;8.214;2023-11-19T03:10:12;10.90;99.90
23267;DHT22;11802;53.160;8.214;2023-11-19T03:12:42;10.90;99.90
23267;DHT22;11802;53.160;8.214;2023-11-19T03:15:08;10.90;99.90
23267;DHT22;11802;53.160;8.214;2023-11-19T03:17:40;10.90;99.90
23267;DHT22;11802;53.160;8.214;2023-11-19T03:20:08;11.00;99.90
23267;DHT22;11802;53.160;8.214;2023-11-19T03:22:40;11.00;99.90
23267;DHT22;11802;53.160;8.214;2023-11-19T03:25:10;11.00;99.90
23267;DHT22;11802;53.160;8.214;2023-11-19T03:27:39;11.00;99.90
23267;DHT22;11802;53.160;8.214;2023-11-19T03:30:08;11.00;99.90
23267;DHT22;11802;53.160;8.214;2023-11-19T03:32:37;11.10;99.90
23267;DHT22;11802;53.160;8.214;2023-11-19T03:35:04;11.10;99.90
23267;DHT22;11802;53.160;8.214;2023-11-19T03:37:32;11.10;99.90
23267;DHT22;11802;53.160;8.214;2023-11-19T03:39:58;11.10;99.90
23267;DHT22;11802;53.160;8.214;2023-11-19T03:42:26;11.00;99.90
23267;DHT22;11802;53.160;8.214;2023-11-19T03:44:52;11.10;99.90
23267;DHT22;11802;53.160;8.214;2023-11-19T03:47:18;11.20;99.90
23267;DHT22;11802;53.160;8.214;2023-11-19T03:49:50;11.20;99.90
23267;DHT22;11802;53.160;8.214;2023-11-19T03:52:17;11.20;99.90
23267;DHT22;11802;53.160;8.214;2023-11-19T03:54:43;11.20;99.90
23267;DHT22;11802;53.160;8.214;2023-11-19T03:57:08;11.10;99.90
23267;DHT22;11802;53.160;8.214;2023-11-19T03:59:36;11.10;99.90
23267;DHT22;11802;53.160;8.214;2023-11-19T04:02:02;11.20;99.90
23267;DHT22;11802;53.160;8.214;2023-11-19T04:04:28;11.20;99.90
23267;DHT22;11802;53.160;8.214;2023-11-19T04:06:55;11.30;99.90
23267;DHT22;11802;53.160;8.214;2023-11-19T04:09:20;11.30;99.90
23267;DHT22;11802;53.160;8.214;2023-11-19T04:11:46;11.40;99.90
23267;DHT22;11802;53.160;8.214;2023-11-19T04:14:12;11.40;99.90
23267;DHT22;11802;53.160;8.214;2023-11-19T04:16:39;11.40;99.90
23267;DHT22;11802;53.160;8.214;2023-11-19T04:19:04;11.40;99.90
23267;DHT22;11802;53.160;8.214;2023-11-19T04:21:30;11.40;99.90
23267;DHT22;11802;53.160;8.214;2023-11-19T04:23:56;11.40;99.90
23267;DHT22;11802;53.160;8.214;2023-11-19T04:26:21;11.40;99.90
23267;DHT22;11802;53.160;8.214;2023-11-19T04:28:47;11.40;99.90
23267;DHT22;11802;53.160;8.214;2023-11-19T04:31:15;11.50;99.90
23267;DHT22;11802;53.160;8.214;2023-11-19T04:33:41;11.50;99.90
23267;DHT22;11802;53.160;8.214;2023-11-19T04:36:07;11.50;99.90
23267;DHT22;11802;53.160;8.214;2023-11-19T04:38:33;11.50;99.90
23267;DHT22;11802;53.160;8.214;2023-11-19T04:40:59;11.40;99.90
23267;DHT22;11802;53.160;8.214;2023-11-19T04:43:25;11.40;99.90
23267;DHT22;11802;53.160;8.214;2023-11-19T04:45:52;11.40;99.90
23267;DHT22;11802;53.160;8.214;2023-11-19T04:48:18;11.40;99.90
23267;DHT22;11802;53.160;8.214;2023-11-19T04:50:43;11.40;99.90
23267;DHT22;11802;53.160;8.214;2023-11-19T04:53:09;11.40;99.90
23267;DHT22;11802;53.160;8.214;2023-11-19T04:55:34;11.30;99.90
23267;DHT22;11802;53.160;8.214;2023-11-19T04:58:00;11.30;99.90
23267;DHT22;11802;53.160;8.214;2023-11-19T05:00:25;11.30;99.90
23267;DHT22;11802;53.160;8.214;2023-11-19T05:02:51;11.40;99.90
23267;DHT22;11802;53.160;8.214;2023-11-19T05:05:16;11.40;99.90
23267;DHT22;11802;53.160;8.214;2023-11-19T05:07:43;11.50;99.90
23267;DHT22;11802;53.160;8.214;2023-11-19T05:10:08;11.40;99.90
23267;DHT22;11802;53.160;8.214;2023-11-19T05:12:34;11.50;99.90
23267;DHT22;11802;53.160;8.214;2023-11-19T05:14:59;11.60;99.90
23267;DHT22;11802;53.160;8.214;2023-11-19T05:17:25;11.60;99.90
23267;DHT22;11802;53.160;8.214;2023-11-19T05:19:51;11.60;99.90
23267;DHT22;11802;53.160;8.214;2023-11-19T05:22:17;11.50;99.90
23267;DHT22;11802;53.160;8.214;2023-11-19T05:24:42;11.50;99.90
23267;DHT22;11802;53.160;8.214;2023-11-19T05:27:09;11.50;99.90
23267;DHT22;11802;53.160;8.214;2023-11-19T05:29:37;11.60;99.90
23267;DHT22;11802;53.160;8.214;2023-11-19T05:32:04;11.50;99.90
23267;DHT22;11802;53.160;8.214;2023-11-19T05:34:30;11.50;99.90
23267;DHT22;11802;53.160;8.214;2023-11-19T05:36:56;11.50;99.90
23267;DHT22;11802;53.160;8.214;2023-11-19T05:39:22;11.50;99.90
23267;DHT22;11802;53.160;8.214;2023-11-19T05:41:48;11.50;99.90
23267;DHT22;11802;53.160;8.214;2023-11-19T05:44:13;11.50;99.90
23267;DHT22;11802;53.160;8.214;2023-11-19T05:46:39;11.40;99.90
23267;DHT22;11802;53.160;8.214;2023-11-19T05:49:08;11.50;99.90
23267;DHT22;11802;53.160;8.214;2023-11-19T05:51:39;11.50;99.90
23267;DHT22;11802;53.160;8.214;2023-11-19T05:54:07;11.50;99.90
23267;DHT22;11802;53.160;8.214;2023-11-19T05:56:33;11.50;99.90
23267;DHT22;11802;53.160;8.214;2023-11-19T05:58:59;11.50;99.90
23267;DHT22;11802;53.160;8.214;2023-11-19T06:01:33;11.50;99.90
23267;DHT22;11802;53.160;8.214;2023-11-19T06:03:59;11.50;99.90
23267;DHT22;11802;53.160;8.214;2023-11-19T06:06:26;11.50;99.90
23267;DHT22;11802;53.160;8.214;2023-11-19T06:08:52;11.50;99.90
23267;DHT22;11802;53.160;8.214;2023-11-19T06:11:17;11.50;99.90
23267;DHT22;11802;53.160;8.214;2023-11-19T06:13:46;11.50;99.90
23267;DHT22;11802;53.160;8.214;2023-11-19T06:16:16;11.50;99.90
23267;DHT22;11802;53.160;8.214;2023-11-19T06:18:41;11.50;99.90
23267;DHT22;11802;53.160;8.214;2023-11-19T06:21:09;11.50;99.90
23267;DHT22;11802;53.160;8.214;2023-11-19T06:23:34;11.50;99.90
23267;DHT22;11802;53.160;8.214;2023-11-19T06:26:00;11.40;99.90
23267;DHT22;11802;53.160;8.214;2023-11-19T06:28:26;11.40;99.90
23267;DHT22;11802;53.160;8.214;2023-11-19T06:30:51;11.50;99.90
23267;DHT22;11802;53.160;8.214;2023-11-19T06:33:17;11.50;99.90
23267;DHT22;11802;53.160;8.214;2023-11-19T06:35:42;11.50;99.90
23267;DHT22;11802;53.160;8.214;2023-11-19T06:38:08;11.50;99.90
23267;DHT22;11802;53.160;8.214;2023-11-19T06:40:34;11.50;99.90
23267;DHT22;11802;53.160;8.214;2023-11-19T06:43:03;11.50;99.90
23267;DHT22;11802;53.160;8.214;2023-11-19T06:45:29;11.50;99.90
23267;DHT22;11802;53.160;8.214;2023-11-19T06:47:55;11.50;99.90
23267;DHT22;11802;53.160;8.214;2023-11-19T06:50:20;11.50;99.90
23267;DHT22;11802;53.160;8.214;2023-11-19T06:52:46;11.50;99.90
23267;DHT22;11802;53.160;8.214;2023-11-19T06:55:12;11.50;99.90
23267;DHT22;11802;53.160;8.214;2023-11-19T06:57:38;11.50;99.90
23267;DHT22;11802;53.160;8.214;2023-11-19T07:00:05;11.50;99.90
23267;DHT22;11802;53.160;8.214;2023-11-19T07:02:31;11.40;99.90
23267;DHT22;11802;53.160;8.214;2023-11-19T07:04:57;11.40;99.90
23267;DHT22;11802;53.160;8.214;2023-11-19T07:07:23;11.30;99.90
23267;DHT22;11802;53.160;8.214;2023-11-19T07:09:49;11.30;99.90
23267;DHT22;11802;53.160;8.214;2023-11-19T07:12:14;11.30;99.90
23267;DHT22;11802;53.160;8.214;2023-11-19T07:14:40;11.40;99.90
23267;DHT22;11802;53.160;8.214;2023-11-19T07:17:07;11.40;99.90
23267;DHT22;11802;53.160;8.214;2023-11-19T07:19:34;11.40;99.90
23267;DHT22;11802;53.160;8.214;2023-11-19T07:22:03;11.40;99.90
23267;DHT22;11802;53.160;8.214;2023-11-19T07:24:28;11.40;99.90
23267;DHT22;11802;53.160;8.214;2023-11-19T07:26:54;11.40;99.90
23267;DHT22;11802;53.160;8.214;2023-11-19T07:29:20;11.40;99.90
23267;DHT22;11802;53.160;8.214;2023-11-19T07:31:48;11.40;99.90
23267;DHT22;11802;53.160;8.214;2023-11-19T07:34:14;11.40;99.90
23267;DHT22;11802;53.160;8.214;2023-11-19T07:36:40;11.50;99.90
23267;DHT22;11802;53.160;8.214;2023-11-19T07:39:06;11.50;99.90
23267;DHT22;11802;53.160;8.214;2023-11-19T07:41:32;11.50;99.90
23267;DHT22;11802;53.160;8.214;2023-11-19T07:43:57;11.50;99.90
23267;DHT22;11802;53.160;8.214;2023-11-19T07:46:23;11.50;99.90
23267;DHT22;11802;53.160;8.214;2023-11-19T07:48:48;11.50;99.90
23267;DHT22;11802;53.160;8.214;2023-11-19T07:51:16;11.50;99.90
23267;DHT22;11802;53.160;8.214;2023-11-19T07:53:41;11.50;99.90
23267;DHT22;11802;53.160;8.214;2023-11-19T07:56:08;11.50;99.90
23267;DHT22;11802;53.160;8.214;2023-11-19T07:58:33;11.60;99.90
23267;DHT22;11802;53.160;8.214;2023-11-19T08:01:00;11.60;99.90
23267;DHT22;11802;53.160;8.214;2023-11-19T08:03:25;11.60;99.90
23267;DHT22;11802;53.160;8.214;2023-11-19T08:05:51;11.70;99.90
23267;DHT22;11802;53.160;8.214;2023-11-19T08:08:17;11.70;99.90
23267;DHT22;11802;53.160;8.214;2023-11-19T08:10:43;11.80;99.90
23267;DHT22;11802;53.160;8.214;2023-11-19T08:13:10;11.70;99.90
23267;DHT22;11802;53.160;8.214;2023-11-19T08:15:36;11.70;99.90
23267;DHT22;11802;53.160;8.214;2023-11-19T08:18:01;11.70;99.90
23267;DHT22;11802;53.160;8.214;2023-11-19T08:20:27;11.70;99.90
23267;DHT22;11802;53.160;8.214;2023-11-19T08:22:53;11.80;99.90
23267;DHT22;11802;53.160;8.214;2023-11-19T08:25:18;11.80;99.90
23267;DHT22;11802;53.160;8.214;2023-11-19T08:27:43;11.90;99.90
23267;DHT22;11802;53.160;8.214;2023-11-19T08:30:09;11.90;99.90
23267;DHT22;11802;53.160;8.214;2023-11-19T08:32:35;11.90;99.90
23267;DHT22;11802;53.160;8.214;2023-11-19T08:35:01;12.00;99.90
23267;DHT22;11802;53.160;8.214;2023-11-19T08:37:27;12.10;99.90
23267;DHT22;11802;53.160;8.214;2023-11-19T08:39:52;12.10;99.90
23267;DHT22;11802;53.160;8.214;2023-11-19T08:42:18;12.10;99.90
23267;DHT22;11802;53.160;8.214;2023-11-19T08:44:44;12.00;99.90
23267;DHT22;11802;53.160;8.214;2023-11-19T08:47:15;12.00;99.90
23267;DHT22;11802;53.160;8.214;2023-11-19T08:49:43;12.00;99.90
23267;DHT22;11802;53.160;8.214;2023-11-19T08:52:09;12.00;99.90
23267;DHT22;11802;53.160;8.214;2023-11-19T08:54:36;12.10;99.90
23267;DHT22;11802;53.160;8.214;2023-11-19T08:57:01;12.20;99.90
23267;DHT22;11802;53.160;8.214;2023-11-19T08:59:28;12.30;99.90
23267;DHT22;11802;53.160;8.214;2023-11-19T09:01:54;12.30;99.90
23267;DHT22;11802;53.160;8.214;2023-11-19T09:04:20;12.30;99.90
23267;DHT22;11802;53.160;8.214;2023-11-19T09:06:48;12.30;99.90
23267;DHT22;11802;53.160;8.214;2023-11-19T09:09:13;12.30;99.90
23267;DHT22;11802;53.160;8.214;2023-11-19T09:11:39;12.30;99.90
23267;DHT22;11802;53.160;8.214;2023-11-19T09:14:05;12.20;99.90
23267;DHT22;11802;53.160;8.214;2023-11-19T09:16:30;12.30;99.90
23267;DHT22;11802;53.160;8.214;2023-11-19T09:18:56;12.40;99.90
23267;DHT22;11802;53.160;8.214;2023-11-19T09:21:23;12.50;99.90
23267;DHT22;11802;53.160;8.214;2023-11-19T09:23:48;12.60;99.90
23267;DHT22;11802;53.160;8.214;2023-11-19T09:26:14;12.70;99.90
23267;DHT22;11802;53.160;8.214;2023-11-19T09:28:40;12.70;99.90
23267;DHT22;11802;53.160;8.214;2023-11-19T09:31:18;12.70;99.90
23267;DHT22;11802;53.160;8.214;2023-11-19T09:33:44;12.60;99.90
23267;DHT22;11802;53.160;8.214;2023-11-19T09:36:12;12.70;99.90
23267;DHT22;11802;53.160;8.214;2023-11-19T09:38:39;12.80;99.90
23267;DHT22;11802;53.160;8.214;2023-11-19T09:41:06;12.70;99.90
23267;DHT22;11802;53.160;8.214;2023-11-19T09:43:35;12.70;99.90
23267;DHT22;11802;53.160;8.214;2023-11-19T09:46:05;12.50;99.90
23267;DHT22;11802;53.160;8.214;2023-11-19T09:48:35;12.50;99.90
23267;DHT22;11802;53.160;8.214;2023-11-19T09:51:02;12.40;99.90
23267;DHT22;11802;53.160;8.214;2023-11-19T09:53:28;12.20;99.90
23267;DHT22;11802;53.160;8.214;2023-11-19T09:55:53;12.20;99.90
23267;DHT22;11802;53.160;8.214;2023-11-19T09:58:20;12.20;99.90
23267;DHT22;11802;53.160;8.214;2023-11-19T10:00:47;12.20;99.90
23267;DHT22;11802;53.160;8.214;2023-11-19T10:03:13;12.10;99.90
23267;DHT22;11802;53.160;8.214;2023-11-19T10:05:39;12.10;99.90
23267;DHT22;11802;53.160;8.214;2023-11-19T10:08:06;12.10;99.90
23267;DHT22;11802;53.160;8.214;2023-11-19T10:10:32;12.10;99.90
23267;DHT22;11802;53.160;8.214;2023-11-19T10:12:57;12.00;99.90
23267;DHT22;11802;53.160;8.214;2023-11-19T10:15:24;12.00;99.90
23267;DHT22;11802;53.160;8.214;2023-11-19T10:17:52;12.00;99.90
23267;DHT22;11802;53.160;8.214;2023-11-19T10:20:20;11.90;99.90
23267;DHT22;11802;53.160;8.214;2023-11-19T10:22:45;11.80;99.90
23267;DHT22;11802;53.160;8.214;2023-11-19T10:25:27;11.80;99.90
23267;DHT22;11802;53.160;8.214;2023-11-19T10:27:55;11.80;99.90
23267;DHT22;11802;53.160;8.214;2023-11-19T10:30:28;11.80;99.90
23267;DHT22;11802;53.160;8.214;2023-11-19T10:35:52;11.90;99.90
23267;DHT22;11802;53.160;8.214;2023-11-19T10:38:22;11.90;99.90
23267;DHT22;11802;53.160;8.214;2023-11-19T10:40:49;12.00;99.90
23267;DHT22;11802;53.160;8.214;2023-11-19T10:43:16;12.00;99.90
23267;DHT22;11802;53.160;8.214;2023-11-19T10:45:42;12.00;99.90
23267;DHT22;11802;53.160;8.214;2023-11-19T10:48:08;12.00;99.90
23267;DHT22;11802;53.160;8.214;2023-11-19T10:50:38;12.00;99.90
23267;DHT22;11802;53.160;8.214;2023-11-19T10:53:05;12.10;99.90
23267;DHT22;11802;53.160;8.214;2023-11-19T10:55:35;12.20;99.90
23267;DHT22;11802;53.160;8.214;2023-11-19T10:58:04;12.40;99.90
23267;DHT22;11802;53.160;8.214;2023-11-19T11:00:47;12.80;99.90
23267;DHT22;11802;53.160;8.214;2023-11-19T11:03:22;13.00;99.90
23267;DHT22;11802;53.160;8.214;2023-11-19T11:05:51;13.10;99.90
23267;DHT22;11802;53.160;8.214;2023-11-19T11:08:17;12.80;99.90
23267;DHT22;11802;53.160;8.214;2023-11-19T11:10:45;12.70;99.90
23267;DHT22;11802;53.160;8.214;2023-11-19T11:13:11;12.50;99.90
23267;DHT22;11802;53.160;8.214;2023-11-19T11:15:39;12.50;99.90
23267;DHT22;11802;53.160;8.214;2023-11-19T11:18:08;12.50;99.90
23267;DHT22;11802;53.160;8.214;2023-11-19T11:20:34;12.50;99.90
23267;DHT22;11802;53.160;8.214;2023-11-19T11:28:48;12.70;99.90
23267;DHT22;11802;53.160;8.214;2023-11-19T11:31:45;12.80;99.90
23267;DHT22;11802;53.160;8.214;2023-11-19T11:34:46;12.70;99.90
23267;DHT22;11802;53.160;8.214;2023-11-19T11:37:44;12.70;99.90
23267;DHT22;11802;53.160;8.214;2023-11-19T11:40:17;12.70;99.90
23267;DHT22;11802;53.160;8.214;2023-11-19T11:42:44;12.60;99.90
23267;DHT22;11802;53.160;8.214;2023-11-19T11:45:14;12.50;99.90
23267;DHT22;11802;53.160;8.214;2023-11-19T11:50:13;12.40;99.90
23267;DHT22;11802;53.160;8.214;2023-11-19T11:58:20;12.30;99.90
23267;DHT22;11802;53.160;8.214;2023-11-19T12:00:47;12.20;99.90
23267;DHT22;11802;53.160;8.214;2023-11-19T12:03:13;12.30;99.90
23267;DHT22;11802;53.160;8.214;2023-11-19T12:05:41;12.30;99.90
23267;DHT22;11802;53.160;8.214;2023-11-19T12:08:10;12.30;99.90
23267;DHT22;11802;53.160;8.214;2023-11-19T12:10:43;12.30;99.90
23267;DHT22;11802;53.160;8.214;2023-11-19T12:13:11;12.30;99.90
23267;DHT22;11802;53.160;8.214;2023-11-19T12:18:29;12.20;99.90
23267;DHT22;11802;53.160;8.214;2023-11-19T12:20:55;12.20;99.90
23267;DHT22;11802;53.160;8.214;2023-11-19T12:23:22;12.20;99.90
23267;DHT22;11802;53.160;8.214;2023-11-19T12:25:48;12.20;99.90
23267;DHT22;11802;53.160;8.214;2023-11-19T12:28:15;12.10;99.90
23267;DHT22;11802;53.160;8.214;2023-11-19T12:30:43;12.00;99.90
23267;DHT22;11802;53.160;8.214;2023-11-19T12:33:10;12.10;99.90
23267;DHT22;11802;53.160;8.214;2023-11-19T12:35:43;12.00;99.90
23267;DHT22;11802;53.160;8.214;2023-11-19T12:38:23;11.90;99.90
23267;DHT22;11802;53.160;8.214;2023-11-19T12:41:05;11.90;99.90
23267;DHT22;11802;53.160;8.214;2023-11-19T12:43:31;11.80;99.90
23267;DHT22;11802;53.160;8.214;2023-11-19T12:45:57;11.70;99.90
23267;DHT22;11802;53.160;8.214;2023-11-19T12:48:22;11.70;99.90
23267;DHT22;11802;53.160;8.214;2023-11-19T12:50:58;11.60;99.90
23267;DHT22;11802;53.160;8.214;2023-11-19T12:53:26;11.70;99.90
23267;DHT22;11802;53.160;8.214;2023-11-19T12:55:52;11.60;99.90
23267;DHT22;11802;53.160;8.214;2023-11-19T12:58:34;11.60;99.90
23267;DHT22;11802;53.160;8.214;2023-11-19T13:01:02;11.60;99.90
23267;DHT22;11802;53.160;8.214;2023-11-19T13:03:38;11.60;99.90
23267;DHT22;11802;53.160;8.214;2023-11-19T13:06:08;11.70;99.90
23267;DHT22;11802;53.160;8.214;2023-11-19T13:08:47;11.70;99.90
23267;DHT22;11802;53.160;8.214;2023-11-19T13:11:33;11.80;99.90
23267;DHT22;11802;53.160;8.214;2023-11-19T13:14:03;11.80;99.90
23267;DHT22;11802;53.160;8.214;2023-11-19T13:16:30;11.80;99.90
23267;DHT22;11802;53.160;8.214;2023-11-19T13:18:56;11.70;99.90
23267;DHT22;11802;53.160;8.214;2023-11-19T13:21:23;11.60;99.90
23267;DHT22;11802;53.160;8.214;2023-11-19T13:23:48;11.60;99.90
23267;DHT22;11802;53.160;8.214;2023-11-19T13:26:14;11.50;99.90
23267;DHT22;11802;53.160;8.214;2023-11-19T13:28:39;11.50;99.90
23267;DHT22;11802;53.160;8.214;2023-11-19T13:31:05;11.50;99.90
23267;DHT22;11802;53.160;8.214;2023-11-19T13:33:32;11.40;99.90
23267;DHT22;11802;53.160;8.214;2023-11-19T13:35:58;11.40;99.90
23267;DHT22;11802;53.160;8.214;2023-11-19T13:38:25;11.40;99.90
23267;DHT22;11802;53.160;8.214;2023-11-19T13:40:50;11.50;99.90
23267;DHT22;11802;53.160;8.214;2023-11-19T13:43:16;11.50;99.90
23267;DHT22;11802;53.160;8.214;2023-11-19T13:45:42;11.50;99.90
23267;DHT22;11802;53.160;8.214;2023-11-19T13:48:08;11.60;99.90
23267;DHT22;11802;53.160;8.214;2023-11-19T13:50:34;11.70;99.90
23267;DHT22;11802;53.160;8.214;2023-11-19T13:53:00;11.70;99.90
23267;DHT22;11802;53.160;8.214;2023-11-19T13:55:25;11.70;99.90
23267;DHT22;11802;53.160;8.214;2023-11-19T13:57:51;11.80;99.90
23267;DHT22;11802;53.160;8.214;2023-11-19T14:00:17;11.90;99.90
23267;DHT22;11802;53.160;8.214;2023-11-19T14:02:45;11.90;99.90
23267;DHT22;11802;53.160;8.214;2023-11-19T14:05:12;11.90;99.90
23267;DHT22;11802;53.160;8.214;2023-11-19T14:07:40;11.90;99.90
23267;DHT22;11802;53.160;8.214;2023-11-19T14:10:07;11.90;99.90
23267;DHT22;11802;53.160;8.214;2023-11-19T14:12:34;12.00;99.90
23267;DHT22;11802;53.160;8.214;2023-11-19T14:15:01;12.00;99.90
23267;DHT22;11802;53.160;8.214;2023-11-19T14:17:27;12.00;99.90
23267;DHT22;11802;53.160;8.214;2023-11-19T14:19:52;11.90;99.90
23267;DHT22;11802;53.160;8.214;2023-11-19T14:22:18;11.90;99.90
23267;DHT22;11802;53.160;8.214;2023-11-19T14:24:43;11.90;99.90
23267;DHT22;11802;53.160;8.214;2023-11-19T14:27:09;11.90;99.90
23267;DHT22;11802;53.160;8.214;2023-11-19T14:29:36;11.90;99.90
23267;DHT22;11802;53.160;8.214;2023-11-19T14:32:02;11.80;99.90
23267;DHT22;11802;53.160;8.214;2023-11-19T14:34:31;11.80;99.90
23267;DHT22;11802;53.160;8.214;2023-11-19T14:36:57;11.90;99.90
23267;DHT22;11802;53.160;8.214;2023-11-19T14:39:24;11.90;99.90
23267;DHT22;11802;53.160;8.214;2023-11-19T14:41:50;11.80;99.90
23267;DHT22;11802;53.160;8.214;2023-11-19T14:44:16;11.90;99.90
23267;DHT22;11802;53.160;8.214;2023-11-19T14:46:42;11.90;99.90
23267;DHT22;11802;53.160;8.214;2023-11-19T14:49:08;11.90;99.90
23267;DHT22;11802;53.160;8.214;2023-11-19T14:51:39;11.90;99.90
23267;DHT22;11802;53.160;8.214;2023-11-19T14:54:05;11.90;99.90
23267;DHT22;11802;53.160;8.214;2023-11-19T14:56:31;12.00;99.90
23267;DHT22;11802;53.160;8.214;2023-11-19T14:58:57;11.90;99.90
23267;DHT22;11802;53.160;8.214;2023-11-19T15:01:22;11.90;99.90
23267;DHT22;11802;53.160;8.214;2023-11-19T15:03:48;11.80;99.90
23267;DHT22;11802;53.160;8.214;2023-11-19T15:06:13;11.70;99.90
23267;DHT22;11802;53.160;8.214;2023-11-19T15:08:40;11.60;99.90
23267;DHT22;11802;53.160;8.214;2023-11-19T15:11:07;11.50;99.90
23267;DHT22;11802;53.160;8.214;2023-11-19T15:13:34;11.40;99.90
23267;DHT22;11802;53.160;8.214;2023-11-19T15:16:02;11.40;99.90
23267;DHT22;11802;53.160;8.214;2023-11-19T15:18:27;11.30;99.90
23267;DHT22;11802;53.160;8.214;2023-11-19T15:20:53;11.30;99.90
23267;DHT22;11802;53.160;8.214;2023-11-19T15:23:18;11.30;99.90
23267;DHT22;11802;53.160;8.214;2023-11-19T15:25:44;11.40;99.90
23267;DHT22;11802;53.160;8.214;2023-11-19T15:28:10;11.30;99.90
23267;DHT22;11802;53.160;8.214;2023-11-19T15:30:36;11.30;99.90
23267;DHT22;11802;53.160;8.214;2023-11-19T15:33:02;11.30;99.90
23267;DHT22;11802;53.160;8.214;2023-11-19T15:35:28;11.30;99.90
23267;DHT22;11802;53.160;8.214;2023-11-19T15:37:53;11.30;99.90
23267;DHT22;11802;53.160;8.214;2023-11-19T15:40:21;11.30;99.90
23267;DHT22;11802;53.160;8.214;2023-11-19T15:42:46;11.30;99.90
23267;DHT22;11802;53.160;8.214;2023-11-19T15:45:13;11.30;99.90
23267;DHT22;11802;53.160;8.214;2023-11-19T15:47:38;11.30;99.90
23267;DHT22;11802;53.160;8.214;2023-11-19T15:50:04;11.20;99.90
23267;DHT22;11802;53.160;8.214;2023-11-19T15:52:30;11.20;99.90